CYWA

Petawawa Airport

Petawawa, Ontario, Canada
TAF CYWA 230530Z 2306/2318 VRB03KT P6SM SKC BECMG 2313/2315 13005KT RMK FCST BASED ON AUTO OBS 230600-231600Z. NXT FCST BY 231200Z
Issued Valid From Valid To
Apr-23 @ 05:30 UTC
(4 hours ago)
Apr-23 @ 06:00 UTC
(4 hours ago)
Apr-23 @ 18:00 UTC
(in 8 hours)
Apr-23 @ 06:00 to Apr-23 @ 13:00
TAF CYWA 230530Z 2306/2318 VRB03KT P6SM SKC
Wind Visibility Clouds
Variable at 3 knots Greater than 6 miles
  • Clear skies
Becoming Apr-23 @ 13:00 to Apr-23 @ 18:00
BECMG 2313/2315 13005KT RMK FCST BASED ON AUTO OBS 230600-231600Z. NXT FCST BY 231200Z
Wind Visibility Clouds
130° at 5 knots Greater than 6 miles
  • Clear skies
TAF CYWA 230530Z 2306/2318 VRB03KT P6SM SKC BECMG 2313/2315 13005KT RMK FCST BASED ON AUTO OBS 230600-231600Z. NXT FCST BY 231200Z
Issued Apr-23 @ 05:30 UTC
(4 hours ago)
Valid From Apr-23 @ 06:00 UTC
(4 hours ago)
Valid To Apr-23 @ 18:00 UTC
(in 8 hours)
Apr-23 @ 06:00 - Apr-23 @ 13:00
Wind Visibility
Variable at 3 knots Greater than 6 miles
Clouds
  • Clear skies
Becoming Apr-23 @ 13:00 - Apr-23 @ 18:00
Wind Visibility
130° at 5 knots Greater than 6 miles
Clouds
  • Clear skies